Airfield :
LOGIN :

Register | Disclaimer

   EN    FR    IT 

 










Legend :    VFR   Marginal VFR   IFR   Intensive IFR   Very Intensive IFR
Visi :
Ceiling :
>= 8 km
>= 3000ft
5 to 8 km
1000 to 3000 ft
1500m to 5 km
500 to 1000 ft
800 to 1500m
200 to 500 ft
< 800m
< 200 ft
Symbols :   Thunderstorms  Fog  Heavy snow  Heavy precipitations  Wind > 20 kt
SIGMETs :     Misc.  Thunderstorms  Icing  Turbulence  Mountain Waves  Volcanic Ashes






- Airport Elevation : 3006 ft
- IATA code : LEN


LELN - Leon

CURRENT METAR :
  • 190900Z 22007KT 170V280 9999 FEW020 14/08 Q1016

EXPIRED METARs :
  • 190830Z 22007KT 170V260 9999 FEW012 13/08 Q1016
  • 190800Z 22005KT 180V260 9999 FEW008 SCT013 12/09 Q1017
  • 190730Z 12001KT 9999 SCT003 BKN008 12/11 Q1017
  • 190700Z VRB02KT 9999 BKN003 11/10 Q1016
  • 190630Z VRB02KT 5000 BR BKN002 10/10 Q1016

TAF TAF LELN
Valid from the 19 at 09:00 until the 20 at 09:00 UTC


190800Z 1909/2009 20008KT 9999 SCT035 TX19/1916Z TN09/2005Z
PROB30
TEMPO 1909/1910 BKN005
PROB40
TEMPO 1909/1919 4000 SHRA RA FEW030TCU SCT035CB
PROB40
TEMPO 2003/2009 RA BKN012



MET'MAP, your aeronautical weather chart ! - Copyright ORBIFLY December 2007 - Disclaimer

ORBIFLY MET'MAP TEAM :

Programming & Development : Alexandra Zaïnal
Concept & original design : Baudouin d'Aumeries
Assistance for programming : Marc-Olivier Méhu
Technical & hardware support : Manuel Goepfert

Contact : metmap@orbifly.com




SOURCES & CREDITS :

   NOAA